Time;durP1;ratioP1;P1;durP2;ratioP2;P2;SDS_P1;SDS_P2;PMS_P1;PMS_P2;Temp;Humidity;BMP_temperature;BMP_pressure;BME280_temperature;BME280_humidity;BME280_pressure;Samples;Min_cycle;Max_cycle;Signal;HPM_P1;HPM_P2
2023/12/24 00:01:17;;;;;;;0.73;0.50;;;22.10;59.50;;;;;;4930231;29;20466;-86
2023/12/24 00:03:45;;;;;;;0.63;0.50;;;22.10;59.30;;;;;;4931618;29;20459;-83
2023/12/24 00:06:14;;;;;;;0.60;0.60;;;22.10;59.50;;;;;;4930495;29;20478;-83
2023/12/24 00:08:43;;;;;;;0.60;0.50;;;22.00;59.60;;;;;;4939500;29;20480;-86
2023/12/24 00:11:11;;;;;;;0.50;0.50;;;22.10;59.60;;;;;;4940371;29;20451;-84
2023/12/24 00:13:39;;;;;;;5.13;0.73;;;22.10;59.50;;;;;;4938441;29;20450;-83
2023/12/24 00:16:09;;;;;;;0.60;0.60;;;22.10;59.40;;;;;;4941840;29;20453;-84
2023/12/24 00:18:37;;;;;;;3.13;0.63;;;22.10;59.40;;;;;;4932895;29;20462;-86
2023/12/24 00:21:06;;;;;;;1.27;0.90;;;22.10;59.30;;;;;;4914511;29;20472;-83
2023/12/24 00:23:35;;;;;;;0.73;0.60;;;22.00;59.50;;;;;;4935316;29;20495;-86
2023/12/24 00:26:03;;;;;;;0.90;0.70;;;22.10;59.70;;;;;;4942122;29;20459;-83
2023/12/24 00:28:32;;;;;;;0.50;0.50;;;22.00;59.30;;;;;;4946443;29;20490;-83
2023/12/24 00:31:00;;;;;;;0.63;0.47;;;22.00;59.40;;;;;;4937729;29;20467;-83
2023/12/24 00:33:29;;;;;;;0.70;0.50;;;22.00;59.30;;;;;;4946415;29;20575;-83
2023/12/24 00:35:58;;;;;;;1.00;0.90;;;22.00;59.30;;;;;;4898809;29;20499;-84
2023/12/24 00:38:26;;;;;;;0.73;0.60;;;22.00;59.10;;;;;;4929593;29;20465;-83
2023/12/24 00:40:54;;;;;;;0.60;0.50;;;22.00;59.40;;;;;;4935893;29;20961;-89
2023/12/24 00:43:23;;;;;;;0.53;0.50;;;22.00;59.30;;;;;;4931362;29;20990;-83
2023/12/24 00:45:52;;;;;;;1.57;1.07;;;22.00;59.40;;;;;;4929983;29;20978;-83
2023/12/24 00:48:20;;;;;;;0.97;0.43;;;22.00;59.20;;;;;;4916537;29;21186;-83
2023/12/24 00:50:50;;;;;;;0.97;0.87;;;22.00;59.30;;;;;;4920660;29;20471;-83
2023/12/24 00:53:18;;;;;;;1.23;0.70;;;22.00;59.40;;;;;;4915145;29;20477;-84
2023/12/24 00:55:47;;;;;;;0.90;0.60;;;22.00;59.50;;;;;;4937654;29;20454;-82
2023/12/24 00:58:17;;;;;;;0.53;0.53;;;22.00;59.20;;;;;;4936140;29;20458;-83
2023/12/24 01:00:46;;;;;;;0.60;0.60;;;22.00;59.50;;;;;;4934840;29;20468;-83
2023/12/24 01:03:15;;;;;;;0.87;0.50;;;22.00;59.30;;;;;;4935954;29;20824;-84
2023/12/24 01:05:43;;;;;;;4.33;0.63;;;22.00;59.40;;;;;;4937739;29;20475;-83
2023/12/24 01:08:14;;;;;;;0.50;0.50;;;22.00;59.40;;;;;;4938033;29;20482;-83
2023/12/24 01:10:42;;;;;;;1.27;0.50;;;21.90;59.20;;;;;;4936302;29;20526;-83
2023/12/24 01:13:10;;;;;;;0.50;0.50;;;21.90;59.30;;;;;;4937230;29;20458;-82
2023/12/24 01:15:38;;;;;;;0.70;0.70;;;21.90;59.10;;;;;;4938381;29;20470;-82
2023/12/24 01:18:07;;;;;;;0.40;0.40;;;21.90;59.10;;;;;;4939846;29;20501;-83
2023/12/24 01:20:35;;;;;;;1.23;0.60;;;21.90;59.10;;;;;;4919062;29;20486;-83
2023/12/24 01:23:04;;;;;;;0.50;0.50;;;21.90;59.10;;;;;;4936306;29;20495;-86
2023/12/24 01:25:34;;;;;;;1.20;0.73;;;21.90;59.10;;;;;;4936587;29;20541;-84
2023/12/24 01:28:02;;;;;;;0.90;0.60;;;21.80;59.20;;;;;;4934839;29;20483;-83
2023/12/24 01:30:30;;;;;;;0.47;0.47;;;21.80;59.00;;;;;;4935762;29;20534;-83
2023/12/24 01:32:59;;;;;;;1.37;0.60;;;21.80;59.20;;;;;;4944480;29;20883;-84
2023/12/24 01:35:28;;;;;;;0.80;0.63;;;21.80;59.30;;;;;;4922877;29;20466;-82
2023/12/24 01:37:56;;;;;;;0.57;0.57;;;21.80;58.90;;;;;;4914207;29;20825;-83
2023/12/24 01:40:25;;;;;;;0.80;0.70;;;21.80;59.20;;;;;;4914027;29;20484;-83
2023/12/24 01:42:54;;;;;;;0.50;0.50;;;21.80;59.00;;;;;;4937320;29;20462;-83
2023/12/24 01:45:23;;;;;;;0.70;0.70;;;21.80;59.30;;;;;;4931393;29;20475;-82
2023/12/24 01:47:51;;;;;;;0.50;0.40;;;21.80;59.30;;;;;;4937295;29;20491;-84
2023/12/24 01:50:20;;;;;;;0.67;0.43;;;21.80;59.30;;;;;;4936613;29;20455;-84
2023/12/24 01:52:49;;;;;;;0.90;0.80;;;21.80;59.10;;;;;;4936894;29;20468;-83
2023/12/24 01:55:18;;;;;;;0.70;0.50;;;21.80;59.40;;;;;;4924259;29;20531;-82
2023/12/24 01:57:46;;;;;;;0.70;0.43;;;21.80;59.30;;;;;;4927265;29;20515;-82
2023/12/24 02:00:19;;;;;;;1.93;0.80;;;21.80;59.20;;;;;;4934746;29;20488;-84
2023/12/24 02:02:50;;;;;;;0.90;0.60;;;21.80;59.20;;;;;;4925878;29;20966;-83
2023/12/24 02:05:19;;;;;;;0.53;0.53;;;21.80;59.30;;;;;;4933568;29;20973;-82
2023/12/24 02:07:49;;;;;;;0.47;0.40;;;21.80;59.20;;;;;;4924471;29;20462;-82
2023/12/24 02:10:18;;;;;;;0.40;0.40;;;21.80;59.00;;;;;;4939875;29;20469;-83
2023/12/24 02:12:46;;;;;;;0.43;0.43;;;21.70;59.10;;;;;;4936599;29;20469;-83
2023/12/24 02:15:16;;;;;;;0.50;0.50;;;21.70;59.20;;;;;;4919361;29;20892;-85
2023/12/24 02:17:45;;;;;;;1.60;1.10;;;21.70;59.30;;;;;;4934343;29;20983;-84
2023/12/24 02:20:13;;;;;;;0.50;0.50;;;21.70;59.10;;;;;;4936647;29;20442;-83
2023/12/24 02:22:43;;;;;;;0.60;0.60;;;21.70;58.80;;;;;;4935272;29;20674;-83
2023/12/24 02:25:11;;;;;;;0.73;0.70;;;21.70;59.00;;;;;;4916432;29;20869;-86
2023/12/24 02:27:50;;;;;;;0.70;0.60;;;21.70;59.10;;;;;;4940284;29;20466;-82
2023/12/24 02:30:22;;;;;;;0.50;0.50;;;21.70;58.70;;;;;;4940072;29;20477;-82
2023/12/24 02:32:56;;;;;;;0.43;0.43;;;21.70;59.00;;;;;;4920154;29;20950;-82
2023/12/24 02:35:30;;;;;;;0.40;0.40;;;21.70;58.90;;;;;;4933671;29;20944;-83
2023/12/24 02:38:00;;;;;;;0.40;0.40;;;21.70;59.10;;;;;;4918502;29;20573;-83
2023/12/24 02:40:28;;;;;;;0.50;0.30;;;21.70;59.10;;;;;;4935297;29;20553;-82
2023/12/24 02:42:57;;;;;;;0.90;0.40;;;21.70;59.00;;;;;;4934679;29;20860;-83
2023/12/24 02:45:25;;;;;;;0.67;0.50;;;21.70;59.20;;;;;;4945233;29;20865;-83
2023/12/24 02:47:54;;;;;;;0.50;0.50;;;21.60;59.00;;;;;;4947181;29;20534;-82
2023/12/24 02:50:23;;;;;;;0.57;0.50;;;21.60;59.20;;;;;;4944437;29;20569;-83
2023/12/24 02:52:51;;;;;;;0.40;0.37;;;21.60;59.10;;;;;;4920187;29;20451;-83
2023/12/24 02:55:21;;;;;;;0.70;0.53;;;21.60;59.00;;;;;;4941648;29;20452;-85
2023/12/24 02:57:49;;;;;;;0.70;0.40;;;21.60;58.90;;;;;;4946283;29;20461;-82
2023/12/24 03:00:18;;;;;;;0.47;0.47;;;21.60;59.20;;;;;;4930293;29;20491;-83
2023/12/24 03:02:47;;;;;;;0.40;0.33;;;21.60;58.80;;;;;;4922444;29;20467;-83
2023/12/24 03:05:15;;;;;;;0.43;0.43;;;21.60;59.20;;;;;;4936985;29;20483;-83
2023/12/24 03:07:44;;;;;;;0.43;0.40;;;21.60;59.10;;;;;;4935028;29;20459;-82
2023/12/24 03:10:12;;;;;;;0.73;0.30;;;21.60;59.00;;;;;;4933278;29;20844;-83
2023/12/24 03:12:41;;;;;;;0.30;0.30;;;21.60;59.00;;;;;;4934731;29;20529;-82
2023/12/24 03:15:11;;;;;;;0.40;0.40;;;21.60;59.00;;;;;;4953323;28;20858;-82
2023/12/24 03:17:40;;;;;;;0.97;0.50;;;21.60;59.10;;;;;;4940168;29;20808;-85
2023/12/24 03:20:09;;;;;;;0.40;0.30;;;21.60;58.90;;;;;;4924355;29;20459;-83
2023/12/24 03:22:38;;;;;;;0.40;0.40;;;21.60;59.10;;;;;;4917042;29;20487;-82
2023/12/24 03:25:06;;;;;;;0.50;0.50;;;21.60;59.00;;;;;;4946815;29;20457;-83
2023/12/24 03:27:34;;;;;;;0.60;0.40;;;21.60;58.90;;;;;;4935878;29;20477;-84
2023/12/24 03:30:05;;;;;;;0.33;0.33;;;21.60;58.90;;;;;;4942163;29;20484;-84
2023/12/24 03:32:33;;;;;;;0.40;0.40;;;21.60;58.80;;;;;;4917714;29;20471;-83
2023/12/24 03:35:02;;;;;;;0.47;0.47;;;21.60;58.90;;;;;;4933871;29;20458;-82
2023/12/24 03:37:32;;;;;;;0.43;0.40;;;21.60;59.00;;;;;;4915403;29;20473;-84
2023/12/24 03:40:00;;;;;;;0.40;0.40;;;21.60;58.90;;;;;;4934582;29;20464;-83
2023/12/24 03:42:28;;;;;;;0.60;0.47;;;21.60;59.00;;;;;;4935754;29;20459;-82
2023/12/24 03:44:57;;;;;;;0.40;0.40;;;21.60;58.80;;;;;;4932926;29;20558;-83
2023/12/24 03:47:26;;;;;;;0.70;0.40;;;21.60;58.60;;;;;;4918951;29;20481;-84
2023/12/24 03:49:55;;;;;;;0.50;0.30;;;21.50;58.80;;;;;;4935988;29;20581;-83
2023/12/24 03:52:23;;;;;;;1.27;0.40;;;21.60;58.80;;;;;;4917560;29;20937;-83
2023/12/24 03:54:51;;;;;;;0.50;0.40;;;21.50;58.90;;;;;;4935272;29;20455;-83
2023/12/24 03:57:19;;;;;;;0.67;0.67;;;21.60;58.90;;;;;;4932987;29;20443;-82
2023/12/24 03:59:48;;;;;;;0.50;0.50;;;21.50;58.80;;;;;;4937136;29;20453;-82
2023/12/24 04:02:16;;;;;;;0.50;0.40;;;21.50;58.80;;;;;;4932234;29;20471;-82
2023/12/24 04:04:47;;;;;;;0.40;0.40;;;21.50;59.00;;;;;;4935954;29;20519;-85
2023/12/24 04:07:16;;;;;;;0.43;0.43;;;21.50;58.90;;;;;;4917719;29;20512;-83
2023/12/24 04:09:44;;;;;;;0.83;0.50;;;21.50;58.80;;;;;;4941477;29;20494;-83
2023/12/24 04:12:12;;;;;;;1.30;0.50;;;21.50;58.80;;;;;;4929772;29;20875;-87
2023/12/24 04:14:41;;;;;;;0.40;0.40;;;21.50;58.70;;;;;;4917516;29;20472;-82
2023/12/24 04:17:09;;;;;;;0.50;0.50;;;21.50;58.70;;;;;;4923543;29;20904;-82
2023/12/24 04:19:37;;;;;;;0.50;0.40;;;21.50;58.80;;;;;;4934276;29;20451;-83
2023/12/24 04:22:07;;;;;;;0.40;0.40;;;21.50;58.90;;;;;;4924417;29;20856;-82
2023/12/24 04:24:35;;;;;;;0.40;0.40;;;21.50;58.70;;;;;;4934634;29;20455;-87
2023/12/24 04:27:04;;;;;;;0.40;0.30;;;21.50;58.70;;;;;;4918461;29;20495;-83
2023/12/24 04:29:33;;;;;;;0.40;0.40;;;21.50;58.90;;;;;;4945964;29;20481;-83
2023/12/24 04:32:01;;;;;;;0.63;0.40;;;21.50;58.80;;;;;;4936178;29;20463;-82
2023/12/24 04:34:29;;;;;;;0.40;0.30;;;21.50;58.60;;;;;;4917587;29;20476;-82
2023/12/24 04:36:58;;;;;;;1.03;0.40;;;21.40;58.80;;;;;;4938817;29;20806;-83
2023/12/24 04:39:27;;;;;;;0.50;0.40;;;21.40;58.80;;;;;;4946129;29;20485;-83
2023/12/24 04:41:55;;;;;;;0.50;0.37;;;21.40;58.70;;;;;;4919935;29;20632;-83
2023/12/24 04:44:23;;;;;;;0.40;0.40;;;21.40;58.80;;;;;;4919717;29;21125;-83
2023/12/24 04:46:52;;;;;;;0.50;0.50;;;21.40;58.50;;;;;;4920600;29;20467;-83
2023/12/24 04:49:20;;;;;;;0.40;0.40;;;21.40;58.40;;;;;;4939592;29;20501;-82
2023/12/24 04:51:48;;;;;;;0.50;0.40;;;21.40;58.70;;;;;;4933942;29;20569;-82
2023/12/24 04:54:17;;;;;;;0.60;0.30;;;21.40;58.50;;;;;;4920419;29;20505;-83
2023/12/24 04:56:46;;;;;;;0.53;0.40;;;21.40;58.50;;;;;;4935200;29;20470;-83
2023/12/24 04:59:14;;;;;;;0.40;0.37;;;21.40;58.60;;;;;;4918649;29;20963;-83
2023/12/24 05:01:43;;;;;;;0.40;0.40;;;21.40;58.60;;;;;;4936972;29;21016;-84
2023/12/24 05:04:11;;;;;;;0.40;0.40;;;21.40;58.70;;;;;;4935767;29;20545;-84
2023/12/24 05:06:40;;;;;;;0.30;0.30;;;21.40;58.80;;;;;;4920613;29;20552;-82
2023/12/24 05:09:10;;;;;;;0.40;0.40;;;21.40;58.70;;;;;;4922987;29;20458;-83
2023/12/24 05:11:39;;;;;;;0.50;0.43;;;21.40;58.60;;;;;;4936161;29;20531;-87
2023/12/24 05:14:09;;;;;;;0.40;0.30;;;21.40;58.70;;;;;;4937724;29;20446;-83
2023/12/24 05:16:37;;;;;;;0.60;0.40;;;21.50;58.70;;;;;;4936965;29;20546;-83
2023/12/24 05:19:05;;;;;;;0.43;0.30;;;21.60;58.70;;;;;;4943344;29;20470;-83
2023/12/24 05:21:34;;;;;;;0.47;0.47;;;21.60;58.50;;;;;;4930520;29;20472;-84
2023/12/24 05:24:02;;;;;;;0.40;0.40;;;21.60;58.40;;;;;;4931855;29;20523;-83
2023/12/24 05:26:31;;;;;;;0.50;0.30;;;21.60;58.10;;;;;;4919430;29;20539;-82
2023/12/24 05:28:59;;;;;;;0.47;0.40;;;21.70;58.10;;;;;;4935641;29;20464;-82
2023/12/24 05:31:28;;;;;;;0.33;0.33;;;21.70;58.00;;;;;;4935334;29;20946;-82
2023/12/24 05:33:57;;;;;;;0.50;0.40;;;21.80;58.00;;;;;;4936238;29;20464;-83
2023/12/24 05:36:25;;;;;;;0.50;0.43;;;21.80;57.80;;;;;;4936029;29;20943;-86
2023/12/24 05:38:53;;;;;;;0.40;0.30;;;21.90;57.80;;;;;;4940169;28;20465;-83
2023/12/24 05:41:21;;;;;;;0.40;0.30;;;22.00;57.90;;;;;;4935861;29;20451;-84
2023/12/24 05:43:53;;;;;;;0.47;0.33;;;22.00;57.70;;;;;;4935699;29;20948;-84
2023/12/24 05:46:23;;;;;;;0.50;0.47;;;22.00;57.80;;;;;;4948385;29;20486;-82
2023/12/24 05:48:52;;;;;;;0.30;0.30;;;22.10;57.60;;;;;;4925943;29;20458;-83
2023/12/24 05:51:20;;;;;;;0.30;0.30;;;22.10;57.40;;;;;;4934061;29;20480;-82
2023/12/24 05:53:49;;;;;;;0.40;0.40;;;22.20;57.50;;;;;;4939749;29;20934;-84
2023/12/24 05:56:17;;;;;;;0.40;0.30;;;22.20;57.20;;;;;;4935707;29;20451;-82
2023/12/24 05:58:45;;;;;;;0.50;0.50;;;22.20;57.40;;;;;;4927583;29;20568;-83
2023/12/24 06:01:13;;;;;;;0.40;0.40;;;22.30;57.20;;;;;;4933798;29;20467;-84
2023/12/24 06:03:42;;;;;;;0.40;0.30;;;22.30;57.10;;;;;;4942981;29;20967;-82
2023/12/24 06:06:12;;;;;;;0.40;0.30;;;22.20;57.10;;;;;;4945405;29;20467;-82
2023/12/24 06:08:40;;;;;;;0.30;0.30;;;22.20;57.20;;;;;;4949418;29;20439;-83
2023/12/24 06:11:16;;;;;;;0.30;0.30;;;22.20;57.10;;;;;;4938315;29;20486;-83
2023/12/24 06:13:44;;;;;;;1.13;0.40;;;22.20;57.30;;;;;;4940131;29;20497;-86
2023/12/24 06:16:13;;;;;;;0.30;0.30;;;22.20;57.20;;;;;;4936722;29;21068;-83
2023/12/24 06:18:42;;;;;;;0.40;0.30;;;22.20;57.30;;;;;;4942264;29;20451;-82
2023/12/24 06:21:12;;;;;;;0.50;0.50;;;22.10;57.40;;;;;;4936009;29;20459;-82
2023/12/24 06:23:40;;;;;;;0.30;0.30;;;22.10;57.40;;;;;;4930066;29;20493;-86
2023/12/24 06:26:08;;;;;;;0.87;0.40;;;22.10;57.40;;;;;;4919144;29;20970;-84
2023/12/24 06:28:37;;;;;;;0.40;0.40;;;22.00;57.20;;;;;;4936186;29;20490;-85
2023/12/24 06:31:05;;;;;;;0.40;0.30;;;22.00;57.40;;;;;;4927079;29;20487;-84
2023/12/24 06:33:33;;;;;;;0.60;0.50;;;22.00;57.40;;;;;;4938619;29;20826;-83
2023/12/24 06:36:01;;;;;;;0.37;0.30;;;22.00;57.30;;;;;;4940093;29;20442;-83
2023/12/24 06:38:31;;;;;;;0.30;0.30;;;21.90;57.40;;;;;;4942107;29;20527;-82
2023/12/24 06:40:59;;;;;;;0.40;0.37;;;21.90;57.60;;;;;;4931913;29;20968;-84
2023/12/24 06:43:28;;;;;;;0.40;0.30;;;21.90;57.50;;;;;;4936472;29;20540;-83
2023/12/24 06:45:56;;;;;;;0.30;0.30;;;21.90;57.80;;;;;;4943297;29;21036;-85
2023/12/24 06:48:24;;;;;;;0.40;0.40;;;21.80;57.60;;;;;;4926102;29;20451;-86
2023/12/24 06:50:52;;;;;;;0.30;0.30;;;21.80;57.70;;;;;;4919037;29;20475;-84
2023/12/24 06:53:21;;;;;;;0.60;0.30;;;21.80;57.80;;;;;;4927978;29;20451;-82
2023/12/24 06:55:50;;;;;;;0.60;0.50;;;21.80;57.70;;;;;;4925239;29;20471;-84
2023/12/24 06:58:18;;;;;;;0.70;0.40;;;21.80;57.80;;;;;;4932457;29;20969;-82
2023/12/24 07:00:47;;;;;;;1.53;0.50;;;21.80;57.50;;;;;;4932652;29;20453;-82
2023/12/24 07:03:15;;;;;;;0.30;0.30;;;21.90;57.70;;;;;;4943563;29;20455;-82
2023/12/24 07:05:43;;;;;;;0.50;0.40;;;21.90;57.60;;;;;;4937546;29;21128;-86
2023/12/24 07:08:12;;;;;;;0.63;0.30;;;21.90;57.60;;;;;;4934266;29;20483;-83
2023/12/24 07:10:40;;;;;;;0.50;0.40;;;22.00;57.60;;;;;;4934341;29;20530;-82
2023/12/24 07:13:10;;;;;;;0.40;0.30;;;21.90;57.60;;;;;;4919372;29;20483;-83
2023/12/24 07:15:40;;;;;;;0.40;0.40;;;22.00;57.40;;;;;;4927584;29;20468;-82
2023/12/24 07:18:08;;;;;;;0.40;0.30;;;21.90;57.60;;;;;;4935871;29;20696;-85
2023/12/24 07:20:36;;;;;;;0.30;0.30;;;22.00;57.50;;;;;;4922634;29;20507;-83
2023/12/24 07:23:05;;;;;;;0.40;0.40;;;22.00;57.50;;;;;;4934331;29;20493;-86
2023/12/24 07:25:33;;;;;;;0.50;0.40;;;22.00;57.30;;;;;;4939755;29;21304;-84
2023/12/24 07:28:02;;;;;;;0.40;0.30;;;22.00;57.30;;;;;;4935980;29;20974;-82
2023/12/24 07:30:32;;;;;;;0.40;0.40;;;22.00;57.20;;;;;;4939464;29;21021;-83
2023/12/24 07:33:00;;;;;;;0.50;0.30;;;22.00;57.30;;;;;;4932450;29;20519;-83
2023/12/24 07:35:29;;;;;;;0.30;0.30;;;22.00;57.20;;;;;;4925001;29;20470;-83
2023/12/24 07:37:57;;;;;;;0.30;0.30;;;22.00;57.20;;;;;;4946176;29;20935;-83
2023/12/24 07:40:25;;;;;;;0.40;0.40;;;22.00;57.30;;;;;;4938858;29;20466;-83
2023/12/24 07:42:53;;;;;;;1.53;0.50;;;22.00;57.30;;;;;;4935667;29;21112;-83
2023/12/24 07:45:24;;;;;;;0.43;0.40;;;22.00;57.30;;;;;;4947843;29;20455;-82
2023/12/24 07:47:53;;;;;;;0.40;0.30;;;22.00;57.10;;;;;;4935906;29;20461;-83
2023/12/24 07:50:22;;;;;;;0.70;0.43;;;22.00;57.10;;;;;;4921202;29;20531;-82
2023/12/24 07:52:50;;;;;;;0.50;0.33;;;22.00;57.10;;;;;;4911972;29;20566;-85
2023/12/24 07:55:19;;;;;;;0.40;0.40;;;22.00;57.10;;;;;;4932652;29;20532;-83
2023/12/24 07:57:47;;;;;;;2.20;0.40;;;22.00;57.10;;;;;;4933808;29;20510;-83
2023/12/24 08:00:16;;;;;;;0.30;0.30;;;22.00;57.00;;;;;;4930971;29;20455;-83
2023/12/24 08:02:46;;;;;;;1.03;1.03;;;22.00;57.10;;;;;;4932403;29;20459;-85
2023/12/24 08:05:16;;;;;;;1.10;0.30;;;22.00;57.20;;;;;;4919323;29;20495;-85
2023/12/24 08:07:44;;;;;;;2.80;0.40;;;22.00;57.20;;;;;;4936650;29;20913;-83
2023/12/24 08:10:13;;;;;;;0.40;0.30;;;22.00;57.20;;;;;;4935332;29;20451;-85
2023/12/24 08:12:42;;;;;;;0.73;0.50;;;21.90;57.10;;;;;;4936273;29;20478;-83
2023/12/24 08:15:13;;;;;;;0.30;0.30;;;21.90;57.20;;;;;;4936399;29;20819;-85
2023/12/24 08:17:41;;;;;;;0.40;0.30;;;21.90;57.20;;;;;;4936283;29;20448;-83
2023/12/24 08:20:11;;;;;;;0.30;0.30;;;21.90;57.20;;;;;;4919262;29;20469;-82
2023/12/24 08:22:41;;;;;;;0.30;0.30;;;21.90;57.30;;;;;;4936293;28;21042;-82
2023/12/24 08:25:09;;;;;;;0.37;0.30;;;21.80;57.20;;;;;;4937539;29;20520;-83
2023/12/24 08:27:37;;;;;;;0.30;0.30;;;21.80;57.30;;;;;;4927180;29;20453;-83
2023/12/24 08:30:07;;;;;;;0.30;0.30;;;21.80;57.30;;;;;;4930770;29;20464;-83
2023/12/24 08:32:35;;;;;;;0.30;0.30;;;21.80;57.20;;;;;;4930015;29;20482;-84
2023/12/24 08:35:04;;;;;;;3.53;0.30;;;21.80;57.30;;;;;;4931223;29;20471;-82
2023/12/24 08:37:32;;;;;;;0.40;0.30;;;21.80;57.30;;;;;;4940493;29;21021;-83
2023/12/24 08:40:02;;;;;;;1.47;0.40;;;21.80;57.40;;;;;;4942309;29;20525;-84
2023/12/24 08:42:30;;;;;;;0.30;0.30;;;21.80;57.40;;;;;;4914551;29;20860;-86
2023/12/24 08:44:58;;;;;;;0.40;0.33;;;21.80;57.40;;;;;;4932590;29;20459;-82
2023/12/24 08:47:26;;;;;;;0.40;0.40;;;21.80;57.30;;;;;;4930490;29;20459;-86
2023/12/24 08:49:56;;;;;;;2.67;0.50;;;21.90;57.50;;;;;;4931551;29;20475;-83
2023/12/24 08:52:25;;;;;;;0.40;0.30;;;21.90;57.30;;;;;;4931136;29;20890;-85
2023/12/24 08:54:54;;;;;;;0.30;0.30;;;21.90;57.40;;;;;;4931714;29;21488;-85
2023/12/24 08:57:23;;;;;;;0.80;0.50;;;21.90;57.60;;;;;;4932035;29;20470;-85
2023/12/24 08:59:52;;;;;;;0.43;0.37;;;22.00;57.60;;;;;;4935358;29;20463;-87
2023/12/24 09:02:20;;;;;;;0.40;0.30;;;22.00;57.60;;;;;;4935950;29;20463;-82
2023/12/24 09:04:49;;;;;;;0.70;0.30;;;22.00;57.50;;;;;;4928126;29;20854;-82
2023/12/24 09:07:18;;;;;;;0.70;0.57;;;22.10;57.50;;;;;;4934587;29;20951;-82
2023/12/24 09:09:48;;;;;;;0.60;0.40;;;22.10;57.50;;;;;;4935908;29;20875;-82
2023/12/24 09:12:16;;;;;;;1.53;0.40;;;22.10;57.40;;;;;;4933464;29;20494;-81
2023/12/24 09:14:46;;;;;;;0.80;0.60;;;22.10;57.60;;;;;;4936981;29;20450;-86
2023/12/24 09:17:14;;;;;;;5.40;0.57;;;22.20;57.40;;;;;;4936887;29;20821;-83
2023/12/24 09:19:43;;;;;;;1.87;0.50;;;22.20;57.40;;;;;;4929686;29;20491;-82
2023/12/24 09:22:11;;;;;;;0.87;0.50;;;22.20;57.50;;;;;;4924525;29;20584;-82
2023/12/24 09:24:39;;;;;;;0.40;0.30;;;22.10;57.60;;;;;;4927307;29;20455;-82
2023/12/24 09:27:08;;;;;;;1.33;0.40;;;22.10;57.60;;;;;;4924130;29;20941;-83
2023/12/24 09:29:36;;;;;;;0.30;0.30;;;22.10;57.50;;;;;;4935040;29;20790;-82
2023/12/24 09:32:06;;;;;;;0.50;0.40;;;22.10;57.60;;;;;;4932311;29;20555;-86
2023/12/24 09:34:34;;;;;;;0.60;0.50;;;22.10;57.60;;;;;;4934334;29;20944;-85
2023/12/24 09:37:03;;;;;;;1.53;0.50;;;22.10;57.70;;;;;;4930662;29;20467;-84
2023/12/24 09:39:31;;;;;;;0.43;0.40;;;22.10;57.70;;;;;;4934853;29;20920;-82
2023/12/24 09:42:00;;;;;;;0.50;0.40;;;22.00;57.70;;;;;;4932824;29;20465;-82
2023/12/24 09:44:28;;;;;;;0.70;0.50;;;22.00;57.80;;;;;;4935305;29;20866;-82
2023/12/24 09:46:56;;;;;;;0.57;0.30;;;22.00;57.70;;;;;;4934700;29;20554;-83
2023/12/24 09:49:26;;;;;;;0.57;0.50;;;22.00;57.70;;;;;;4927951;29;20485;-86
2023/12/24 09:51:57;;;;;;;4.63;0.57;;;22.00;57.80;;;;;;4926971;29;20670;-85
2023/12/24 09:54:26;;;;;;;0.70;0.57;;;22.00;57.90;;;;;;4930097;29;20483;-82
2023/12/24 09:56:55;;;;;;;0.60;0.40;;;21.90;57.90;;;;;;4933516;29;20515;-85
2023/12/24 09:59:23;;;;;;;0.40;0.33;;;21.90;57.90;;;;;;4935243;29;20549;-82
2023/12/24 10:01:52;;;;;;;0.70;0.40;;;21.90;57.90;;;;;;4925140;29;20567;-82
2023/12/24 10:04:20;;;;;;;0.77;0.60;;;21.90;57.80;;;;;;4928276;29;20455;-82
2023/12/24 10:06:56;;;;;;;0.47;0.47;;;21.90;57.80;;;;;;4942865;29;20455;-81
2023/12/24 10:09:26;;;;;;;0.60;0.60;;;21.90;57.80;;;;;;4943733;29;20486;-85
2023/12/24 10:12:04;;;;;;;0.50;0.50;;;22.00;58.00;;;;;;4931585;29;20834;-82
2023/12/24 10:14:33;;;;;;;0.50;0.40;;;22.00;58.00;;;;;;4927398;29;21062;-85
2023/12/24 10:17:03;;;;;;;0.50;0.40;;;22.00;58.00;;;;;;4930308;29;20462;-82
2023/12/24 10:19:32;;;;;;;0.80;0.40;;;22.00;58.10;;;;;;4940000;29;20458;-85
2023/12/24 10:22:04;;;;;;;1.13;0.50;;;22.00;58.00;;;;;;4927805;29;20492;-82
2023/12/24 10:24:34;;;;;;;1.03;0.57;;;22.10;58.10;;;;;;4927612;29;20497;-83
2023/12/24 10:27:07;;;;;;;3.90;0.70;;;22.10;58.20;;;;;;4933630;29;20492;-83
2023/12/24 10:29:37;;;;;;;1.40;0.80;;;22.10;58.10;;;;;;4935991;29;20455;-87
2023/12/24 10:32:06;;;;;;;3.50;0.60;;;22.10;58.20;;;;;;4922708;29;20527;-85
2023/12/24 10:34:35;;;;;;;0.90;0.70;;;22.10;58.20;;;;;;4937037;29;20514;-85
2023/12/24 10:37:18;;;;;;;2.00;0.70;;;22.20;58.10;;;;;;4929280;29;20853;-82
2023/12/24 10:39:47;;;;;;;0.80;0.80;;;22.20;58.10;;;;;;4933978;29;20963;-81
2023/12/24 10:42:17;;;;;;;1.30;0.70;;;22.20;58.10;;;;;;4937500;29;20529;-82
2023/12/24 10:44:46;;;;;;;0.40;0.40;;;22.20;58.10;;;;;;4944842;29;20475;-81
2023/12/24 10:47:14;;;;;;;0.70;0.70;;;22.20;58.00;;;;;;4936935;29;22502;-84
2023/12/24 10:49:42;;;;;;;2.63;0.60;;;22.10;58.00;;;;;;4921636;29;20472;-80
2023/12/24 10:52:10;;;;;;;0.97;0.87;;;22.10;58.10;;;;;;4933600;29;20476;-83
2023/12/24 10:54:41;;;;;;;0.80;0.80;;;22.10;58.10;;;;;;4934577;29;20475;-81
2023/12/24 10:57:23;;;;;;;0.90;0.60;;;22.10;58.10;;;;;;4928401;29;20463;-83
2023/12/24 11:00:07;;;;;;;1.90;0.50;;;22.10;58.00;;;;;;4932659;29;20475;-81
2023/12/24 11:02:37;;;;;;;2.23;0.60;;;22.00;58.10;;;;;;4934480;29;20554;-83
2023/12/24 11:05:06;;;;;;;0.50;0.47;;;22.00;58.20;;;;;;4927000;29;20485;-87
2023/12/24 11:07:53;;;;;;;1.10;0.67;;;22.00;58.20;;;;;;4934117;29;20444;-81
2023/12/24 11:10:43;;;;;;;1.10;0.67;;;22.00;58.20;;;;;;4912295;29;20532;-80
2023/12/24 11:13:32;;;;;;;2.30;0.67;;;21.90;58.20;;;;;;4924642;29;20469;-81
2023/12/24 11:16:02;;;;;;;0.60;0.60;;;21.90;58.20;;;;;;4909998;29;20470;-83
2023/12/24 11:18:41;;;;;;;1.47;0.70;;;21.90;58.20;;;;;;4933729;29;20466;-80
2023/12/24 11:21:10;;;;;;;0.40;0.40;;;21.90;58.30;;;;;;4933487;29;20561;-80
2023/12/24 11:23:40;;;;;;;0.90;0.90;;;21.90;58.40;;;;;;4937648;28;21050;-81
2023/12/24 11:26:32;;;;;;;3.13;0.73;;;21.90;58.40;;;;;;4925250;29;20537;-83
2023/12/24 11:29:02;;;;;;;1.07;0.60;;;21.90;58.40;;;;;;4934160;29;20514;-81
2023/12/24 11:31:30;;;;;;;0.40;0.40;;;21.90;58.40;;;;;;4940097;29;20450;-82
2023/12/24 11:34:00;;;;;;;1.50;0.70;;;21.90;58.50;;;;;;4942129;29;20536;-83
2023/12/24 11:36:28;;;;;;;2.20;0.63;;;21.90;58.70;;;;;;4923768;29;20545;-82
2023/12/24 11:38:57;;;;;;;1.80;1.00;;;21.90;58.60;;;;;;4908911;29;20471;-85
2023/12/24 11:41:28;;;;;;;2.17;0.93;;;22.00;58.70;;;;;;4921234;29;20963;-86
2023/12/24 11:44:00;;;;;;;2.23;1.03;;;22.00;58.60;;;;;;4932746;29;20541;-83
2023/12/24 11:46:29;;;;;;;2.37;0.90;;;22.00;58.60;;;;;;4916045;29;20460;-83
2023/12/24 11:49:02;;;;;;;1.13;1.03;;;22.00;58.70;;;;;;4938457;29;20535;-83
2023/12/24 11:51:31;;;;;;;3.33;0.70;;;22.00;58.70;;;;;;4927407;29;20529;-85
2023/12/24 11:54:01;;;;;;;0.67;0.50;;;22.00;58.60;;;;;;4929508;29;20508;-85
2023/12/24 11:56:30;;;;;;;4.07;1.40;;;22.10;58.70;;;;;;4930071;29;20803;-84
2023/12/24 11:59:01;;;;;;;3.43;0.90;;;22.10;58.70;;;;;;4930967;29;20457;-83
2023/12/24 12:01:32;;;;;;;2.40;1.20;;;22.10;58.60;;;;;;4912471;29;20511;-83
2023/12/24 12:04:01;;;;;;;2.37;0.67;;;22.10;58.70;;;;;;4933023;29;20553;-83
2023/12/24 12:06:30;;;;;;;1.50;0.97;;;22.10;58.60;;;;;;4935258;29;20519;-83
2023/12/24 12:09:03;;;;;;;4.53;0.97;;;22.10;58.70;;;;;;4936268;29;20462;-82
2023/12/24 12:11:32;;;;;;;2.17;0.77;;;22.10;58.70;;;;;;4931248;29;20467;-82
2023/12/24 12:14:02;;;;;;;9.97;1.10;;;22.10;58.70;;;;;;4931080;29;20593;-82
2023/12/24 12:16:30;;;;;;;2.60;1.60;;;22.10;58.70;;;;;;4932855;29;20446;-81
2023/12/24 12:18:58;;;;;;;5.23;1.10;;;22.10;58.80;;;;;;4911398;29;20832;-82
2023/12/24 12:21:27;;;;;;;2.10;0.80;;;22.10;58.80;;;;;;4929584;29;20842;-83
2023/12/24 12:23:55;;;;;;;4.10;0.80;;;22.10;58.90;;;;;;4929532;29;20491;-83
2023/12/24 12:26:23;;;;;;;3.37;1.17;;;22.10;58.90;;;;;;4931471;29;20463;-83
2023/12/24 12:28:51;;;;;;;3.63;1.03;;;22.00;58.90;;;;;;4930182;29;20557;-83
2023/12/24 12:31:21;;;;;;;2.90;1.20;;;22.00;58.80;;;;;;4930974;29;20444;-83
2023/12/24 12:33:49;;;;;;;5.40;1.00;;;22.00;58.80;;;;;;4934208;29;20471;-82
2023/12/24 12:36:18;;;;;;;3.90;0.90;;;22.00;58.80;;;;;;4927482;29;20476;-83
2023/12/24 12:38:46;;;;;;;7.40;1.97;;;22.00;58.80;;;;;;4925445;29;20472;-83
2023/12/24 12:41:14;;;;;;;1.80;1.00;;;21.90;58.80;;;;;;4928099;29;20832;-83
2023/12/24 12:43:43;;;;;;;2.50;1.07;;;21.90;58.70;;;;;;4931643;29;20498;-84
2023/12/24 12:46:11;;;;;;;6.33;1.10;;;21.90;58.60;;;;;;4922186;29;20977;-84
2023/12/24 12:48:41;;;;;;;1.47;0.80;;;21.90;58.80;;;;;;4926641;29;20554;-82
2023/12/24 12:51:10;;;;;;;2.60;1.43;;;21.90;58.80;;;;;;4923092;29;20511;-81
2023/12/24 12:53:38;;;;;;;2.73;2.07;;;21.90;58.60;;;;;;4930414;29;20463;-86
2023/12/24 12:56:07;;;;;;;3.93;1.10;;;21.90;58.60;;;;;;4927429;29;20493;-84
2023/12/24 12:58:36;;;;;;;1.73;1.07;;;22.00;58.50;;;;;;4917561;29;20565;-82